createdAt,value
2019-05-09T00:00:47.286Z,0.00
2019-05-09T00:01:47.182Z,0.00
2019-05-09T00:02:47.082Z,0.00
2019-05-09T00:03:47.058Z,0.00
2019-05-09T00:04:46.882Z,0.00
2019-05-09T00:05:46.782Z,0.00
2019-05-09T00:06:46.685Z,0.00
2019-05-09T00:07:46.582Z,0.00
2019-05-09T00:08:46.477Z,0.00
2019-05-09T00:09:46.379Z,0.00
2019-05-09T00:10:46.277Z,0.00
2019-05-09T00:11:46.176Z,0.00
2019-05-09T00:12:46.075Z,0.00
2019-05-09T00:13:45.974Z,0.00
2019-05-09T00:14:45.876Z,0.00
2019-05-09T00:15:45.772Z,0.00
2019-05-09T00:16:45.672Z,0.00
2019-05-09T00:17:45.571Z,0.00
2019-05-09T00:18:45.469Z,0.00
2019-05-09T00:19:45.369Z,0.00
2019-05-09T00:20:45.272Z,0.00
2019-05-09T00:21:45.168Z,0.00
2019-05-09T00:22:45.068Z,0.00
2019-05-09T00:23:45.043Z,0.00
2019-05-09T00:24:44.927Z,0.00
2019-05-09T00:25:44.767Z,0.00
2019-05-09T00:26:44.670Z,0.00
2019-05-09T00:27:44.566Z,0.00
2019-05-09T00:28:44.461Z,0.00
2019-05-09T00:29:44.362Z,0.00
2019-05-09T00:30:44.260Z,0.00
2019-05-09T00:31:44.160Z,0.00
2019-05-09T00:32:44.061Z,0.00
2019-05-09T00:33:46.131Z,0.00
2019-05-09T00:34:44.165Z,0.00
2019-05-09T00:35:44.237Z,0.00
2019-05-09T00:36:43.863Z,0.00
2019-05-09T00:37:43.556Z,0.00
2019-05-09T00:38:43.579Z,0.00
2019-05-09T00:39:43.523Z,0.00
2019-05-09T00:40:55.263Z,0.00
2019-05-09T00:41:43.536Z,0.00
2019-05-09T00:42:44.073Z,0.00
2019-05-09T00:43:43.598Z,0.00
2019-05-09T00:44:43.153Z,0.00
2019-05-09T00:45:43.862Z,0.00
2019-05-09T00:46:43.123Z,0.00
2019-05-09T00:47:43.368Z,0.00
2019-05-09T00:48:43.909Z,0.00
2019-05-09T00:49:43.482Z,0.00
2019-05-09T00:50:43.732Z,0.00
2019-05-09T00:51:43.696Z,0.00
2019-05-09T00:52:43.081Z,0.00
2019-05-09T00:53:44.271Z,0.00
2019-05-09T00:54:43.678Z,0.00
2019-05-09T00:55:43.592Z,0.00
2019-05-09T00:56:43.477Z,0.00
2019-05-09T00:57:41.531Z,0.00
2019-05-09T00:58:41.432Z,0.00
2019-05-09T00:59:41.331Z,0.00
2019-05-09T01:00:41.232Z,0.00
2019-05-09T01:01:43.548Z,0.00
2019-05-09T01:02:43.369Z,0.00
2019-05-09T01:03:43.107Z,0.00
2019-05-09T01:04:40.838Z,0.00
2019-05-09T01:05:40.723Z,0.00
2019-05-09T01:06:40.622Z,0.00
2019-05-09T01:07:40.520Z,0.00
2019-05-09T01:08:40.420Z,0.00
2019-05-09T01:09:40.318Z,0.00
2019-05-09T01:10:40.217Z,0.00
2019-05-09T01:11:40.118Z,0.00
2019-05-09T01:12:40.016Z,0.00
2019-05-09T01:13:39.912Z,0.00
2019-05-09T01:14:39.825Z,0.00
2019-05-09T01:15:39.711Z,0.00
2019-05-09T01:16:39.609Z,0.00
2019-05-09T01:17:39.512Z,0.00
2019-05-09T01:18:39.406Z,0.00
2019-05-09T01:19:39.308Z,0.00
2019-05-09T01:20:39.206Z,0.00
2019-05-09T01:21:39.102Z,0.00
2019-05-09T01:22:39.001Z,0.00
2019-05-09T01:23:38.954Z,0.00
2019-05-09T01:24:38.805Z,0.00
2019-05-09T01:25:38.698Z,0.00
2019-05-09T01:26:38.596Z,0.00
2019-05-09T01:27:38.496Z,0.00
2019-05-09T01:28:38.394Z,0.00
2019-05-09T01:29:38.289Z,0.00
2019-05-09T01:30:38.193Z,0.00
2019-05-09T01:31:38.091Z,0.00
2019-05-09T01:32:37.990Z,0.00
2019-05-09T01:33:37.888Z,0.00
2019-05-09T01:34:37.785Z,0.00
2019-05-09T01:35:37.688Z,0.00
2019-05-09T01:36:37.585Z,0.00
2019-05-09T01:37:37.481Z,0.00
2019-05-09T01:38:37.381Z,0.00
2019-05-09T01:39:37.280Z,0.00
2019-05-09T01:40:37.180Z,0.00
2019-05-09T01:41:37.077Z,0.00
2019-05-09T01:42:36.975Z,0.00
2019-05-09T01:43:36.933Z,0.00
2019-05-09T01:44:36.783Z,0.00
2019-05-09T01:45:36.671Z,0.00
2019-05-09T01:46:36.573Z,0.00
2019-05-09T01:47:36.472Z,0.00
2019-05-09T01:48:36.372Z,0.00
2019-05-09T01:49:36.269Z,0.00
2019-05-09T01:50:36.166Z,0.00
2019-05-09T01:51:36.068Z,0.00
2019-05-09T01:52:35.965Z,0.00
2019-05-09T01:53:35.867Z,0.00
2019-05-09T01:54:35.766Z,0.00
2019-05-09T01:55:35.663Z,0.00
2019-05-09T01:56:35.563Z,0.00
2019-05-09T01:57:35.461Z,0.00
2019-05-09T01:58:35.360Z,0.00
2019-05-09T01:59:35.261Z,0.00
2019-05-09T02:00:35.159Z,0.00
2019-05-09T02:01:35.062Z,0.00
2019-05-09T02:02:34.955Z,0.00
2019-05-09T02:03:34.905Z,0.00
2019-05-09T02:04:34.843Z,0.00
2019-05-09T02:05:34.652Z,0.00
2019-05-09T02:06:34.552Z,0.00
2019-05-09T02:07:34.454Z,0.00
2019-05-09T02:08:34.644Z,0.00
2019-05-09T02:09:34.510Z,0.00
2019-05-09T02:10:34.713Z,0.00
2019-05-09T02:11:42.369Z,0.00
2019-05-09T02:12:33.960Z,0.00
2019-05-09T02:13:34.050Z,0.00
2019-05-09T02:14:34.358Z,0.00
2019-05-09T02:15:34.183Z,0.00
2019-05-09T02:16:33.843Z,0.00
2019-05-09T02:17:33.535Z,0.00
2019-05-09T02:18:33.422Z,0.00
2019-05-09T02:19:33.298Z,0.00
2019-05-09T02:20:33.412Z,0.00
2019-05-09T02:21:34.475Z,0.00
2019-05-09T02:22:34.546Z,0.00
2019-05-09T02:23:33.926Z,0.00
2019-05-09T02:24:33.819Z,0.00
2019-05-09T02:25:33.535Z,0.00
2019-05-09T02:26:33.467Z,0.00
2019-05-09T02:27:33.192Z,0.00
2019-05-09T02:28:34.138Z,0.00
2019-05-09T02:29:33.786Z,0.00
2019-05-09T02:30:35.764Z,0.00
2019-05-09T02:31:35.119Z,0.00
2019-05-09T02:32:34.497Z,0.00
2019-05-09T02:33:33.890Z,0.00
2019-05-09T02:34:35.202Z,0.00
2019-05-09T02:35:38.823Z,0.00
2019-05-09T02:36:31.533Z,0.00
2019-05-09T02:37:31.429Z,0.00
2019-05-09T02:38:31.329Z,0.00
2019-05-09T02:39:31.238Z,0.00
2019-05-09T02:40:31.126Z,0.00
2019-05-09T02:41:31.036Z,0.00
2019-05-09T02:42:30.927Z,0.00
2019-05-09T02:43:30.864Z,0.00
2019-05-09T02:44:30.790Z,0.00
2019-05-09T02:45:30.621Z,0.00
2019-05-09T02:46:30.521Z,0.00
2019-05-09T02:47:30.419Z,0.00
2019-05-09T02:48:30.319Z,0.00
2019-05-09T02:49:30.217Z,0.00
2019-05-09T02:50:30.118Z,0.00
2019-05-09T02:51:30.025Z,0.00
2019-05-09T02:52:29.918Z,0.00
2019-05-09T02:53:29.819Z,0.00
2019-05-09T02:54:30.093Z,0.00
2019-05-09T02:55:29.611Z,0.00
2019-05-09T02:56:29.699Z,0.00
2019-05-09T02:57:29.598Z,0.00
2019-05-09T02:58:29.312Z,0.00
2019-05-09T02:59:29.826Z,0.00
2019-05-09T03:00:29.169Z,0.00
2019-05-09T03:01:29.533Z,0.00
2019-05-09T03:02:29.060Z,0.00
2019-05-09T03:03:29.196Z,0.00
2019-05-09T03:04:28.762Z,0.00
2019-05-09T03:05:29.635Z,0.00
2019-05-09T03:06:28.619Z,0.00
2019-05-09T03:07:28.915Z,0.00
2019-05-09T03:08:29.607Z,0.00
2019-05-09T03:09:28.832Z,0.00
2019-05-09T03:10:29.357Z,0.00
2019-05-09T03:11:28.995Z,0.00
2019-05-09T03:12:34.645Z,0.00
2019-05-09T03:13:29.107Z,0.00
2019-05-09T03:14:28.631Z,0.00
2019-05-09T03:15:29.097Z,0.00
2019-05-09T03:16:29.323Z,0.00
2019-05-09T03:17:28.056Z,0.00
2019-05-09T03:18:28.662Z,0.00
2019-05-09T03:19:29.791Z,0.00
2019-05-09T03:20:28.857Z,0.00
2019-05-09T03:21:29.852Z,0.00
2019-05-09T03:22:28.910Z,0.00
2019-05-09T03:23:28.491Z,0.00
2019-05-09T03:24:28.786Z,0.00
2019-05-09T03:25:28.877Z,0.00
2019-05-09T03:26:29.090Z,0.00
2019-05-09T03:27:28.756Z,0.00
2019-05-09T03:28:28.347Z,0.00
2019-05-09T03:29:28.914Z,5.63
2019-05-09T03:30:28.928Z,5.63
2019-05-09T03:31:29.582Z,5.63
2019-05-09T03:32:29.418Z,5.63
2019-05-09T03:33:28.825Z,5.63
2019-05-09T03:34:25.677Z,5.63
2019-05-09T03:35:27.405Z,5.63
2019-05-09T03:36:25.475Z,5.63
2019-05-09T03:37:25.373Z,5.63
2019-05-09T03:38:25.272Z,5.63
2019-05-09T03:39:27.039Z,5.63
2019-05-09T03:40:27.132Z,5.63
2019-05-09T03:41:24.971Z,11.25
2019-05-09T03:42:38.033Z,11.25
2019-05-09T03:43:24.792Z,11.25
2019-05-09T03:44:24.726Z,11.25
2019-05-09T03:45:24.566Z,11.25
2019-05-09T03:46:24.464Z,16.88
2019-05-09T03:47:24.363Z,16.88
2019-05-09T03:48:24.264Z,16.88
2019-05-09T03:49:24.159Z,16.88
2019-05-09T03:50:24.060Z,22.50
2019-05-09T03:51:23.960Z,22.50
2019-05-09T03:52:23.859Z,22.50
2019-05-09T03:53:23.757Z,28.13
2019-05-09T03:54:23.656Z,22.50
2019-05-09T03:55:23.554Z,22.50
2019-05-09T03:56:23.462Z,22.50
2019-05-09T03:57:23.353Z,22.50
2019-05-09T03:58:23.254Z,28.13
2019-05-09T03:59:23.152Z,33.75
2019-05-09T04:00:23.052Z,39.38
2019-05-09T04:01:22.953Z,45.00
2019-05-09T04:02:22.863Z,45.00
2019-05-09T04:03:22.761Z,50.63
2019-05-09T04:04:22.703Z,56.25
2019-05-09T04:05:22.545Z,61.88
2019-05-09T04:06:22.446Z,73.13
2019-05-09T04:07:22.346Z,78.75
2019-05-09T04:08:22.247Z,84.38
2019-05-09T04:09:22.143Z,78.75
2019-05-09T04:10:22.042Z,73.13
2019-05-09T04:11:21.942Z,73.13
2019-05-09T04:12:21.842Z,73.13
2019-05-09T04:13:21.739Z,73.13
2019-05-09T04:14:21.742Z,84.38
2019-05-09T04:15:21.542Z,90.00
2019-05-09T04:16:21.439Z,90.00
2019-05-09T04:17:21.337Z,84.38
2019-05-09T04:18:21.238Z,73.13
2019-05-09T04:19:21.136Z,67.50
2019-05-09T04:20:21.035Z,61.88
2019-05-09T04:21:20.933Z,67.50
2019-05-09T04:22:20.837Z,73.13
2019-05-09T04:23:20.736Z,78.75
2019-05-09T04:24:20.667Z,84.38
2019-05-09T04:25:20.534Z,90.00
2019-05-09T04:26:20.432Z,90.00
2019-05-09T04:27:20.335Z,90.00
2019-05-09T04:28:20.233Z,90.00
2019-05-09T04:29:20.132Z,90.00
2019-05-09T04:30:20.030Z,90.00
2019-05-09T04:31:19.929Z,90.00
2019-05-09T04:32:19.840Z,84.38
2019-05-09T04:33:19.729Z,84.38
2019-05-09T04:34:19.628Z,84.38
2019-05-09T04:35:19.531Z,90.00
2019-05-09T04:36:19.428Z,95.63
2019-05-09T04:37:19.339Z,101.25
2019-05-09T04:38:19.231Z,101.25
2019-05-09T04:39:23.439Z,101.25
2019-05-09T04:40:19.029Z,106.88
2019-05-09T04:41:23.845Z,101.25
2019-05-09T04:42:18.827Z,95.63
2019-05-09T04:43:26.978Z,95.63
2019-05-09T04:44:21.671Z,90.00
2019-05-09T04:45:18.527Z,90.00
2019-05-09T04:46:24.175Z,90.00
2019-05-09T04:47:18.329Z,90.00
2019-05-09T04:48:23.912Z,95.63
2019-05-09T04:49:19.116Z,101.25
2019-05-09T04:50:23.647Z,101.25
2019-05-09T04:51:18.086Z,106.88
2019-05-09T04:52:18.151Z,112.50
2019-05-09T04:53:18.279Z,123.75
2019-05-09T04:54:17.845Z,129.38
2019-05-09T04:55:18.198Z,140.63
2019-05-09T04:56:17.647Z,146.25
2019-05-09T04:57:17.851Z,135.00
2019-05-09T04:58:19.190Z,135.00
2019-05-09T04:59:17.903Z,135.00
2019-05-09T05:00:18.427Z,129.38
2019-05-09T05:01:19.561Z,118.13
2019-05-09T05:02:18.299Z,106.88
2019-05-09T05:03:18.299Z,101.25
2019-05-09T05:04:18.050Z,95.63
2019-05-09T05:05:18.069Z,90.00
2019-05-09T05:06:18.773Z,95.63
2019-05-09T05:07:18.097Z,101.25
2019-05-09T05:08:18.162Z,112.50
2019-05-09T05:09:20.546Z,123.75
2019-05-09T05:10:18.258Z,135.00
2019-05-09T05:11:17.713Z,140.63
2019-05-09T05:12:15.828Z,129.38
2019-05-09T05:13:25.747Z,118.13
2019-05-09T05:14:17.255Z,106.88
2019-05-09T05:15:15.528Z,106.88
2019-05-09T05:16:15.430Z,118.13
2019-05-09T05:17:17.648Z,129.38
2019-05-09T05:18:17.456Z,146.25
2019-05-09T05:19:15.130Z,168.75
2019-05-09T05:20:15.031Z,185.63
2019-05-09T05:21:14.929Z,196.88
2019-05-09T05:22:14.831Z,208.13
2019-05-09T05:23:14.734Z,219.38
2019-05-09T05:24:14.670Z,225.00
2019-05-09T05:25:14.592Z,225.00
2019-05-09T05:26:14.432Z,219.38
2019-05-09T05:27:14.333Z,208.13
2019-05-09T05:28:14.231Z,202.50
2019-05-09T05:29:14.133Z,196.88
2019-05-09T05:30:14.034Z,196.88
2019-05-09T05:31:13.936Z,196.88
2019-05-09T05:32:13.835Z,196.88
2019-05-09T05:33:13.736Z,180.00
2019-05-09T05:34:13.639Z,163.13
2019-05-09T05:35:13.537Z,151.88
2019-05-09T05:36:13.438Z,146.25
2019-05-09T05:37:13.342Z,151.88
2019-05-09T05:38:13.238Z,168.75
2019-05-09T05:39:13.141Z,168.75
2019-05-09T05:40:13.041Z,180.00
2019-05-09T05:41:12.941Z,191.25
2019-05-09T05:42:12.842Z,202.50
2019-05-09T05:43:12.745Z,213.75
2019-05-09T05:44:12.644Z,225.00
2019-05-09T05:45:12.568Z,241.88
2019-05-09T05:46:12.443Z,247.50
2019-05-09T05:47:12.345Z,247.50
2019-05-09T05:48:12.246Z,247.50
2019-05-09T05:49:12.147Z,247.50
2019-05-09T05:50:12.049Z,247.50
2019-05-09T05:51:11.946Z,241.88
2019-05-09T05:52:11.847Z,230.63
2019-05-09T05:53:11.746Z,213.75
2019-05-09T05:54:11.651Z,191.25
2019-05-09T05:55:11.551Z,180.00
2019-05-09T05:56:11.452Z,163.13
2019-05-09T05:57:11.351Z,151.88
2019-05-09T05:58:11.253Z,151.88
2019-05-09T05:59:11.154Z,146.25
2019-05-09T06:00:11.055Z,146.25
2019-05-09T06:01:10.959Z,151.88
2019-05-09T06:02:10.856Z,151.88
2019-05-09T06:03:10.755Z,146.25
2019-05-09T06:04:10.658Z,151.88
2019-05-09T06:05:10.606Z,140.63
2019-05-09T06:06:10.488Z,135.00
2019-05-09T06:07:10.362Z,135.00
2019-05-09T06:08:10.262Z,135.00
2019-05-09T06:09:10.162Z,140.63
2019-05-09T06:10:10.063Z,151.88
2019-05-09T06:11:12.256Z,168.75
2019-05-09T06:12:09.866Z,196.88
2019-05-09T06:13:09.767Z,225.00
2019-05-09T06:14:11.904Z,247.50
2019-05-09T06:15:09.567Z,270.00
2019-05-09T06:16:09.471Z,286.88
2019-05-09T06:17:09.368Z,292.50
2019-05-09T06:18:09.273Z,303.75
2019-05-09T06:19:09.170Z,315.00
2019-05-09T06:20:09.182Z,331.88
2019-05-09T06:21:09.062Z,343.13
2019-05-09T06:22:08.873Z,360.00
2019-05-09T06:23:08.807Z,365.63
2019-05-09T06:24:08.690Z,371.25
2019-05-09T06:25:09.763Z,376.88
2019-05-09T06:26:09.850Z,382.50
2019-05-09T06:27:10.319Z,399.38
2019-05-09T06:28:08.280Z,421.88
2019-05-09T06:29:08.252Z,427.50
2019-05-09T06:30:08.654Z,427.50
2019-05-09T06:31:07.983Z,421.88
2019-05-09T06:32:07.968Z,416.25
2019-05-09T06:33:08.998Z,399.38
2019-05-09T06:34:08.343Z,376.88
2019-05-09T06:35:08.324Z,354.38
2019-05-09T06:36:07.937Z,337.50
2019-05-09T06:37:08.884Z,320.63
2019-05-09T06:38:07.895Z,303.75
2019-05-09T06:39:08.294Z,292.50
2019-05-09T06:40:08.112Z,286.88
2019-05-09T06:41:08.878Z,286.88
2019-05-09T06:42:08.923Z,292.50
2019-05-09T06:43:08.017Z,298.13
2019-05-09T06:44:14.153Z,303.75
2019-05-09T06:45:07.761Z,303.75
2019-05-09T06:46:08.172Z,303.75
2019-05-09T06:47:08.251Z,320.63
2019-05-09T06:48:07.611Z,337.50
2019-05-09T06:49:21.441Z,365.63
2019-05-09T06:50:07.785Z,393.75
2019-05-09T06:51:07.359Z,405.00
2019-05-09T06:52:05.915Z,399.38
2019-05-09T06:53:07.838Z,393.75
2019-05-09T06:54:07.590Z,382.50
2019-05-09T06:55:05.618Z,382.50
2019-05-09T06:56:07.339Z,393.75
2019-05-09T06:57:07.796Z,393.75
2019-05-09T06:58:05.325Z,416.25
2019-05-09T06:59:07.466Z,433.13
2019-05-09T07:00:05.127Z,444.38
2019-05-09T07:01:07.437Z,444.38
2019-05-09T07:02:04.935Z,444.38
2019-05-09T07:03:04.833Z,427.50
2019-05-09T07:04:04.734Z,405.00
2019-05-09T07:05:04.638Z,388.13
2019-05-09T07:06:04.537Z,371.25
2019-05-09T07:07:04.461Z,354.38
2019-05-09T07:08:04.342Z,337.50
2019-05-09T07:09:04.247Z,337.50
2019-05-09T07:10:04.145Z,348.75
2019-05-09T07:11:04.048Z,360.00
2019-05-09T07:12:03.950Z,365.63
2019-05-09T07:13:03.850Z,354.38
2019-05-09T07:14:03.753Z,326.25
2019-05-09T07:15:03.657Z,303.75
2019-05-09T07:16:03.557Z,281.25
2019-05-09T07:17:03.459Z,264.38
2019-05-09T07:18:03.361Z,253.13
2019-05-09T07:19:03.267Z,241.88
2019-05-09T07:20:03.167Z,230.63
2019-05-09T07:21:03.066Z,230.63
2019-05-09T07:22:02.970Z,236.25
2019-05-09T07:23:02.874Z,241.88
2019-05-09T07:24:02.772Z,247.50
2019-05-09T07:25:06.524Z,247.50
2019-05-09T07:26:02.576Z,253.13
2019-05-09T07:27:02.506Z,258.75
2019-05-09T07:28:02.434Z,264.38
2019-05-09T07:29:02.285Z,275.63
2019-05-09T07:30:02.216Z,286.88
2019-05-09T07:31:02.088Z,298.13
2019-05-09T07:32:01.989Z,315.00
2019-05-09T07:33:01.889Z,326.25
2019-05-09T07:34:01.788Z,337.50
2019-05-09T07:35:01.694Z,360.00
2019-05-09T07:36:01.593Z,365.63
2019-05-09T07:37:01.499Z,360.00
2019-05-09T07:38:01.397Z,348.75
2019-05-09T07:39:01.302Z,331.88
2019-05-09T07:40:01.205Z,315.00
2019-05-09T07:41:01.120Z,303.75
2019-05-09T07:42:01.004Z,281.25
2019-05-09T07:43:00.905Z,264.38
2019-05-09T07:44:00.807Z,247.50
2019-05-09T07:45:00.711Z,236.25
2019-05-09T07:46:00.613Z,230.63
2019-05-09T07:47:00.513Z,225.00
2019-05-09T07:48:00.477Z,230.63
2019-05-09T07:49:00.311Z,236.25
2019-05-09T07:50:00.230Z,247.50
2019-05-09T07:51:00.119Z,264.38
2019-05-09T07:52:06.108Z,292.50
2019-05-09T07:52:59.922Z,320.63
2019-05-09T07:53:59.823Z,365.63
2019-05-09T07:54:59.730Z,410.63
2019-05-09T07:55:59.627Z,444.38
2019-05-09T07:56:59.562Z,461.25
2019-05-09T07:57:59.428Z,483.75
2019-05-09T07:58:59.335Z,495.00
2019-05-09T07:59:59.239Z,500.63
2019-05-09T08:01:01.464Z,506.25
2019-05-09T08:01:59.038Z,517.50
2019-05-09T08:02:58.947Z,545.63
2019-05-09T08:03:59.192Z,585.00
2019-05-09T08:04:58.742Z,630.00
2019-05-09T08:05:58.653Z,663.75
2019-05-09T08:06:58.548Z,680.63
2019-05-09T08:07:58.730Z,686.25
2019-05-09T08:08:58.500Z,663.75
2019-05-09T08:09:58.259Z,613.13
2019-05-09T08:10:58.622Z,556.88
2019-05-09T08:11:58.782Z,517.50
2019-05-09T08:12:58.486Z,489.38
2019-05-09T08:13:57.862Z,472.50
2019-05-09T08:15:10.345Z,466.88
2019-05-09T08:15:58.525Z,466.88
2019-05-09T08:16:58.096Z,478.13
2019-05-09T08:17:59.177Z,495.00
2019-05-09T08:18:57.912Z,517.50
2019-05-09T08:19:58.312Z,545.63
2019-05-09T08:20:57.772Z,613.13
2019-05-09T08:21:57.600Z,680.63
2019-05-09T08:23:01.451Z,753.75
2019-05-09T08:23:57.944Z,804.38
2019-05-09T08:24:57.617Z,838.13
2019-05-09T08:25:57.885Z,843.75
2019-05-09T08:26:58.035Z,821.25
2019-05-09T08:27:58.528Z,776.25
2019-05-09T08:28:58.492Z,753.75
2019-05-09T08:29:58.344Z,697.50
2019-05-09T08:30:58.311Z,630.00
2019-05-09T08:31:58.064Z,579.38
2019-05-09T08:32:56.017Z,568.13
2019-05-09T08:33:55.924Z,579.38
2019-05-09T08:34:57.634Z,596.25
2019-05-09T08:35:58.323Z,613.13
2019-05-09T08:36:57.813Z,596.25
2019-05-09T08:37:58.019Z,573.75
2019-05-09T08:38:58.368Z,635.63
2019-05-09T08:39:57.586Z,736.88
2019-05-09T08:40:55.249Z,849.38
2019-05-09T08:41:55.157Z,866.25
2019-05-09T08:42:55.056Z,832.50
2019-05-09T08:43:57.403Z,793.13
2019-05-09T08:44:54.863Z,810.00
2019-05-09T08:45:54.767Z,860.63
2019-05-09T08:46:54.673Z,894.38
2019-05-09T08:47:54.579Z,1141.88
2019-05-09T08:48:54.509Z,1282.50
2019-05-09T08:49:54.418Z,1040.63
2019-05-09T08:50:54.331Z,787.50
2019-05-09T08:52:09.031Z,675.00
2019-05-09T08:52:54.103Z,680.63
2019-05-09T08:53:54.003Z,725.63
2019-05-09T08:54:53.908Z,742.50
2019-05-09T08:55:53.817Z,680.63
2019-05-09T08:56:53.717Z,630.00
2019-05-09T08:57:53.629Z,652.50
2019-05-09T08:58:53.529Z,753.75
2019-05-09T08:59:53.432Z,2193.75
2019-05-09T09:00:53.336Z,770.63
2019-05-09T09:02:11.228Z,686.25
2019-05-09T09:02:53.144Z,635.63
2019-05-09T09:03:53.052Z,579.38
2019-05-09T09:04:52.954Z,613.13
2019-05-09T09:05:52.863Z,703.13
2019-05-09T09:06:52.772Z,798.75
2019-05-09T09:07:52.672Z,3459.38
2019-05-09T09:08:52.578Z,3436.88
2019-05-09T09:09:52.481Z,2233.13
2019-05-09T09:10:52.388Z,1243.13
2019-05-09T09:11:52.316Z,703.13
2019-05-09T09:12:52.199Z,669.38
2019-05-09T09:13:52.106Z,630.00
2019-05-09T09:14:52.013Z,596.25
2019-05-09T09:16:08.154Z,579.38
2019-05-09T09:16:51.821Z,585.00
2019-05-09T09:17:51.729Z,568.13
2019-05-09T09:18:51.634Z,511.88
2019-05-09T09:19:51.540Z,500.63
2019-05-09T09:20:51.445Z,489.38
2019-05-09T09:21:51.353Z,523.13
2019-05-09T09:22:51.257Z,624.38
2019-05-09T09:23:51.162Z,720.00
2019-05-09T09:24:51.067Z,978.75
2019-05-09T09:25:50.975Z,1113.75
2019-05-09T09:26:50.882Z,2143.13
2019-05-09T09:27:51.212Z,3166.88
2019-05-09T09:28:50.693Z,3487.50
2019-05-09T09:29:50.597Z,3588.75
2019-05-09T09:30:50.504Z,3729.38
2019-05-09T09:31:50.422Z,3560.63
2019-05-09T09:32:50.406Z,3375.00
2019-05-09T09:33:50.387Z,1282.50
2019-05-09T09:34:50.215Z,1068.75
2019-05-09T09:35:50.123Z,1940.63
2019-05-09T09:36:50.030Z,2936.25
2019-05-09T09:37:52.310Z,2666.25
2019-05-09T09:38:49.852Z,2576.25
2019-05-09T09:39:49.756Z,1209.38
2019-05-09T09:40:49.665Z,1186.88
2019-05-09T09:41:49.582Z,1653.75
2019-05-09T09:42:49.482Z,1023.75
2019-05-09T09:43:49.391Z,843.75
2019-05-09T09:44:49.302Z,888.75
2019-05-09T09:46:05.846Z,1074.38
2019-05-09T09:46:49.122Z,961.88
2019-05-09T09:47:49.027Z,1158.75
2019-05-09T09:48:48.936Z,815.63
2019-05-09T09:49:49.246Z,765.00
2019-05-09T09:50:51.318Z,838.13
2019-05-09T09:51:48.662Z,860.63
2019-05-09T09:52:49.152Z,753.75
2019-05-09T09:53:48.975Z,568.13
2019-05-09T09:54:48.407Z,421.88
2019-05-09T09:55:48.264Z,365.63
2019-05-09T09:56:48.126Z,348.75
2019-05-09T09:57:48.421Z,348.75
2019-05-09T09:58:48.329Z,371.25
2019-05-09T09:59:48.512Z,393.75
2019-05-09T10:00:48.495Z,405.00
2019-05-09T10:01:47.866Z,388.13
2019-05-09T10:02:48.257Z,382.50
2019-05-09T10:03:47.482Z,399.38
2019-05-09T10:04:47.387Z,421.88
2019-05-09T10:05:48.585Z,393.75
2019-05-09T10:06:48.132Z,326.25
2019-05-09T10:07:47.670Z,303.75
2019-05-09T10:08:49.005Z,337.50
2019-05-09T10:09:47.996Z,388.13
2019-05-09T10:10:48.329Z,427.50
2019-05-09T10:11:48.300Z,410.63
2019-05-09T10:12:49.380Z,393.75
2019-05-09T10:13:48.052Z,393.75
2019-05-09T10:14:46.454Z,388.13
2019-05-09T10:15:47.451Z,371.25
2019-05-09T10:16:47.759Z,371.25
2019-05-09T10:17:47.686Z,376.88
2019-05-09T10:18:46.078Z,388.13
2019-05-09T10:19:48.230Z,399.38
2019-05-09T10:20:48.340Z,416.25
2019-05-09T10:21:45.795Z,444.38
2019-05-09T10:22:55.362Z,489.38
2019-05-09T10:23:48.147Z,630.00
2019-05-09T10:24:47.741Z,675.00
2019-05-09T10:25:45.419Z,781.88
2019-05-09T10:26:45.324Z,916.88
2019-05-09T10:27:47.856Z,2632.50
2019-05-09T10:28:45.567Z,1282.50
2019-05-09T10:29:45.125Z,1383.75
2019-05-09T10:30:45.030Z,1676.25
2019-05-09T10:31:44.937Z,1485.00
2019-05-09T10:32:44.758Z,2975.63
2019-05-09T10:33:44.664Z,1333.13
2019-05-09T10:34:44.570Z,2401.88
2019-05-09T10:35:44.478Z,1299.38
2019-05-09T10:36:44.384Z,1164.38
2019-05-09T10:37:44.290Z,1147.50
2019-05-09T10:38:44.272Z,1226.25
2019-05-09T10:39:44.103Z,1226.25
2019-05-09T10:40:44.012Z,1108.13
2019-05-09T10:41:43.919Z,973.13
2019-05-09T10:42:43.834Z,894.38
2019-05-09T10:43:43.733Z,849.38
2019-05-09T10:44:43.640Z,810.00
2019-05-09T10:45:43.549Z,776.25
2019-05-09T10:46:52.460Z,742.50
2019-05-09T10:47:43.361Z,720.00
2019-05-09T10:48:43.269Z,686.25
2019-05-09T10:49:43.180Z,641.25
2019-05-09T10:50:45.658Z,601.88
2019-05-09T10:51:42.993Z,545.63
2019-05-09T10:52:42.899Z,489.38
2019-05-09T10:53:42.809Z,438.75
2019-05-09T10:54:42.717Z,405.00
2019-05-09T10:55:42.623Z,376.88
2019-05-09T10:56:42.525Z,354.38
2019-05-09T10:57:43.335Z,337.50
2019-05-09T10:58:42.368Z,320.63
2019-05-09T10:59:42.252Z,315.00
2019-05-09T11:00:42.177Z,309.38
2019-05-09T11:01:42.063Z,303.75
2019-05-09T11:02:41.969Z,309.38
2019-05-09T11:03:41.877Z,326.25
2019-05-09T11:04:45.857Z,343.13
2019-05-09T11:05:41.688Z,343.13
2019-05-09T11:06:41.595Z,331.88
2019-05-09T11:07:41.523Z,326.25
2019-05-09T11:08:41.403Z,320.63
2019-05-09T11:09:41.315Z,320.63
2019-05-09T11:10:41.215Z,320.63
2019-05-09T11:11:41.215Z,320.63
2019-05-09T11:12:41.022Z,331.88
2019-05-09T11:13:40.926Z,360.00
2019-05-09T11:14:40.832Z,388.13
2019-05-09T11:15:40.789Z,427.50
2019-05-09T11:16:46.174Z,450.00
2019-05-09T11:17:40.540Z,461.25
2019-05-09T11:18:40.444Z,466.88
2019-05-09T11:19:40.348Z,478.13
2019-05-09T11:20:40.249Z,500.63
2019-05-09T11:21:40.222Z,534.38
2019-05-09T11:22:40.056Z,585.00
2019-05-09T11:23:39.957Z,601.88
2019-05-09T11:24:46.252Z,613.13
2019-05-09T11:25:39.764Z,613.13
2019-05-09T11:26:40.065Z,613.13
2019-05-09T11:27:39.569Z,635.63
2019-05-09T11:28:39.471Z,680.63
2019-05-09T11:29:39.375Z,703.13
2019-05-09T11:30:39.287Z,748.13
2019-05-09T11:31:39.181Z,798.75
2019-05-09T11:32:39.085Z,843.75
2019-05-09T11:33:38.987Z,916.88
2019-05-09T11:34:38.891Z,1012.50
2019-05-09T11:35:38.792Z,1051.88
2019-05-09T11:36:38.697Z,1023.75
2019-05-09T11:37:38.617Z,1057.50
2019-05-09T11:38:43.758Z,1068.75
2019-05-09T11:39:41.977Z,1001.25
2019-05-09T11:40:38.309Z,900.00
2019-05-09T11:41:38.504Z,843.75
2019-05-09T11:42:38.253Z,810.00
2019-05-09T11:43:38.917Z,787.50
2019-05-09T11:44:38.503Z,776.25
2019-05-09T11:45:38.867Z,770.63
2019-05-09T11:46:38.261Z,742.50
2019-05-09T11:47:45.458Z,725.63
2019-05-09T11:48:38.147Z,697.50
2019-05-09T11:49:39.033Z,686.25
2019-05-09T11:50:38.830Z,669.38
2019-05-09T11:51:37.277Z,663.75
2019-05-09T11:52:38.263Z,663.75
2019-05-09T11:53:39.936Z,680.63
2019-05-09T11:54:38.818Z,703.13
2019-05-09T11:55:42.897Z,725.63
2019-05-09T11:56:38.473Z,748.13
2019-05-09T11:57:38.503Z,759.38
2019-05-09T11:58:37.973Z,973.13
2019-05-09T11:59:37.934Z,1681.88
2019-05-09T12:00:38.150Z,2503.13
2019-05-09T12:01:36.295Z,3729.38
2019-05-09T12:02:38.399Z,4798.13
2019-05-09T12:03:38.409Z,4050.00
2019-05-09T12:04:37.835Z,1310.63
2019-05-09T12:05:37.854Z,922.50
2019-05-09T12:06:38.058Z,855.00
2019-05-09T12:07:37.806Z,832.50
2019-05-09T12:08:35.624Z,826.88
2019-05-09T12:09:35.531Z,832.50
2019-05-09T12:10:38.096Z,821.25
2019-05-09T12:11:39.153Z,810.00
2019-05-09T12:12:35.245Z,793.13
2019-05-09T12:13:35.153Z,765.00
2019-05-09T12:14:35.061Z,765.00
2019-05-09T12:15:34.976Z,849.38
2019-05-09T12:16:34.876Z,905.63
2019-05-09T12:17:49.691Z,765.00
2019-05-09T12:18:34.695Z,742.50
2019-05-09T12:19:34.597Z,736.88
2019-05-09T12:20:34.505Z,736.88
2019-05-09T12:21:38.519Z,770.63
2019-05-09T12:22:34.323Z,748.13
2019-05-09T12:23:34.226Z,725.63
2019-05-09T12:24:34.141Z,731.25
2019-05-09T12:25:34.078Z,703.13
2019-05-09T12:26:33.953Z,736.88
2019-05-09T12:27:33.851Z,720.00
2019-05-09T12:28:33.757Z,720.00
2019-05-09T12:29:33.662Z,826.88
2019-05-09T12:30:33.570Z,871.88
2019-05-09T12:31:33.475Z,725.63
2019-05-09T12:32:33.408Z,551.25
2019-05-09T12:33:33.516Z,528.75
2019-05-09T12:34:33.195Z,562.50
2019-05-09T12:35:33.103Z,551.25
2019-05-09T12:36:33.006Z,545.63
2019-05-09T12:37:32.913Z,523.13
2019-05-09T12:38:32.840Z,455.63
2019-05-09T12:39:32.727Z,393.75
2019-05-09T12:40:32.631Z,416.25
2019-05-09T12:41:32.542Z,416.25